sensor_id;sensor_type;location;lat;lon;timestamp;pressure;altitude;pressure_sealevel;temperature
62932;BMP280;49037;41.898;25.004;2023-06-24T18:01:06;96367.63;;;24.18
62932;BMP280;49037;41.898;25.004;2023-06-24T18:06:25;96379.53;;;24.44
62932;BMP280;49037;41.898;25.004;2023-06-24T18:09:45;96367.84;;;24.24
62932;BMP280;49037;41.898;25.004;2023-06-24T18:19:20;96373.19;;;24.20
62932;BMP280;49037;41.898;25.004;2023-06-24T18:29:50;96375.03;;;24.71
62932;BMP280;49037;41.898;25.004;2023-06-24T18:35:24;96392.53;;;24.45
62932;BMP280;49037;41.898;25.004;2023-06-24T19:00:54;96416.31;;;24.06
62932;BMP280;49037;41.898;25.004;2023-06-24T19:03:36;96411.44;;;23.86
62932;BMP280;49037;41.898;25.004;2023-06-24T19:06:07;96414.53;;;23.78
62932;BMP280;49037;41.898;25.004;2023-06-24T19:08:43;96413.75;;;23.58
62932;BMP280;49037;41.898;25.004;2023-06-24T19:11:17;96405.94;;;23.51
62932;BMP280;49037;41.898;25.004;2023-06-24T19:13:43;96405.94;;;23.51
62932;BMP280;49037;41.898;25.004;2023-06-24T19:16:28;96404.91;;;23.43
62932;BMP280;49037;41.898;25.004;2023-06-24T19:19:17;96395.25;;;23.40
62932;BMP280;49037;41.898;25.004;2023-06-24T19:21:43;96385.97;;;23.29
62932;BMP280;49037;41.898;25.004;2023-06-24T19:24:08;96392.72;;;23.28
62932;BMP280;49037;41.898;25.004;2023-06-24T19:26:34;96385.47;;;23.18
62932;BMP280;49037;41.898;25.004;2023-06-24T19:29:07;96374.16;;;23.08
62932;BMP280;49037;41.898;25.004;2023-06-24T19:31:35;96390.16;;;23.15
62932;BMP280;49037;41.898;25.004;2023-06-24T19:34:01;96378.34;;;23.11
62932;BMP280;49037;41.898;25.004;2023-06-24T19:36:29;96398.00;;;23.24
62932;BMP280;49037;41.898;25.004;2023-06-24T19:38:57;96394.50;;;23.22
62932;BMP280;49037;41.898;25.004;2023-06-24T19:41:25;96375.94;;;23.01
62932;BMP280;49037;41.898;25.004;2023-06-24T19:48:44;96374.00;;;23.21
62932;BMP280;49037;41.898;25.004;2023-06-24T19:51:09;96355.00;;;23.06
62932;BMP280;49037;41.898;25.004;2023-06-24T19:53:43;96374.84;;;23.08
62932;BMP280;49037;41.898;25.004;2023-06-24T19:56:20;96370.53;;;23.03
62932;BMP280;49037;41.898;25.004;2023-06-24T19:58:48;96376.09;;;23.05
62932;BMP280;49037;41.898;25.004;2023-06-24T20:01:22;96366.44;;;23.02
62932;BMP280;49037;41.898;25.004;2023-06-24T20:03:50;96376.72;;;23.04
62932;BMP280;49037;41.898;25.004;2023-06-24T20:06:15;96364.63;;;22.91
62932;BMP280;49037;41.898;25.004;2023-06-24T20:08:50;96370.47;;;22.86
62932;BMP280;49037;41.898;25.004;2023-06-24T20:11:15;96378.84;;;22.90
62932;BMP280;49037;41.898;25.004;2023-06-24T20:15:14;96377.91;;;22.83
62932;BMP280;49037;41.898;25.004;2023-06-24T20:17:46;96365.78;;;22.71
62932;BMP280;49037;41.898;25.004;2023-06-24T20:20:11;96371.31;;;22.73
62932;BMP280;49037;41.898;25.004;2023-06-24T20:22:39;96365.88;;;22.73
62932;BMP280;49037;41.898;25.004;2023-06-24T20:26:17;96370.88;;;22.79
62932;BMP280;49037;41.898;25.004;2023-06-24T20:28:43;96367.94;;;22.75
62932;BMP280;49037;41.898;25.004;2023-06-24T20:33:20;96352.44;;;22.62
62932;BMP280;49037;41.898;25.004;2023-06-24T20:35:50;96343.41;;;22.57
62932;BMP280;49037;41.898;25.004;2023-06-24T20:41:46;96340.59;;;22.40
62932;BMP280;49037;41.898;25.004;2023-06-24T20:44:23;96348.84;;;22.42
62932;BMP280;49037;41.898;25.004;2023-06-24T20:46:56;96339.63;;;22.34
62932;BMP280;49037;41.898;25.004;2023-06-24T20:49:39;96354.09;;;22.38
62932;BMP280;49037;41.898;25.004;2023-06-24T20:52:14;96342.88;;;22.30
62932;BMP280;49037;41.898;25.004;2023-06-24T20:54:47;96354.63;;;22.35
62932;BMP280;49037;41.898;25.004;2023-06-24T20:57:21;96358.00;;;22.33
62932;BMP280;49037;41.898;25.004;2023-06-24T20:59:49;96355.16;;;22.31
62932;BMP280;49037;41.898;25.004;2023-06-24T21:11:06;96369.50;;;22.47
62932;BMP280;49037;41.898;25.004;2023-06-24T21:14:51;96356.72;;;22.21
62932;BMP280;49037;41.898;25.004;2023-06-24T21:18:14;96354.25;;;22.11
62932;BMP280;49037;41.898;25.004;2023-06-24T21:20:40;96390.06;;;22.06
62932;BMP280;49037;41.898;25.004;2023-06-24T21:27:42;96388.56;;;22.03
62932;BMP280;49037;41.898;25.004;2023-06-24T21:33:40;96395.91;;;21.85
62932;BMP280;49037;41.898;25.004;2023-06-24T21:36:08;96401.22;;;21.83
62932;BMP280;49037;41.898;25.004;2023-06-24T21:38:37;96401.28;;;21.57
62932;BMP280;49037;41.898;25.004;2023-06-24T21:41:05;96407.34;;;21.42
62932;BMP280;49037;41.898;25.004;2023-06-24T21:43:30;96409.69;;;21.34
62932;BMP280;49037;41.898;25.004;2023-06-24T21:45:58;96405.53;;;21.33
62932;BMP280;49037;41.898;25.004;2023-06-24T21:51:05;96409.69;;;21.21
62932;BMP280;49037;41.898;25.004;2023-06-24T21:55:00;96414.50;;;21.22
62932;BMP280;49037;41.898;25.004;2023-06-24T21:58:14;96410.19;;;21.04
62932;BMP280;49037;41.898;25.004;2023-06-24T22:00:47;96395.69;;;20.99
62932;BMP280;49037;41.898;25.004;2023-06-24T22:03:12;96401.72;;;20.98
62932;BMP280;49037;41.898;25.004;2023-06-24T22:06:40;96390.72;;;20.56
62932;BMP280;49037;41.898;25.004;2023-06-24T22:11:53;96408.88;;;20.40
62932;BMP280;49037;41.898;25.004;2023-06-24T22:18:04;96381.50;;;20.23
62932;BMP280;49037;41.898;25.004;2023-06-24T22:20:32;96381.69;;;20.27
62932;BMP280;49037;41.898;25.004;2023-06-24T22:23:00;96382.53;;;20.29
62932;BMP280;49037;41.898;25.004;2023-06-24T22:25:37;96377.97;;;20.21
62932;BMP280;49037;41.898;25.004;2023-06-24T22:28:03;96371.25;;;20.22
62932;BMP280;49037;41.898;25.004;2023-06-24T22:30:40;96369.66;;;20.30
62932;BMP280;49037;41.898;25.004;2023-06-24T22:33:35;96358.81;;;20.30
62932;BMP280;49037;41.898;25.004;2023-06-24T22:38:09;96368.50;;;20.46
62932;BMP280;49037;41.898;25.004;2023-06-24T22:41:01;96354.84;;;20.44
62932;BMP280;49037;41.898;25.004;2023-06-24T22:43:29;96355.97;;;20.66
62932;BMP280;49037;41.898;25.004;2023-06-24T22:46:07;96352.97;;;20.73
62932;BMP280;49037;41.898;25.004;2023-06-24T22:48:32;96348.84;;;20.72
62932;BMP280;49037;41.898;25.004;2023-06-24T22:50:58;96352.25;;;20.73
62932;BMP280;49037;41.898;25.004;2023-06-24T23:08:56;96349.34;;;20.69
62932;BMP280;49037;41.898;25.004;2023-06-24T23:11:46;96362.16;;;20.55
62932;BMP280;49037;41.898;25.004;2023-06-24T23:14:26;96362.09;;;20.53
62932;BMP280;49037;41.898;25.004;2023-06-24T23:17:00;96358.13;;;20.29
62932;BMP280;49037;41.898;25.004;2023-06-24T23:22:24;96361.28;;;20.13
62932;BMP280;49037;41.898;25.004;2023-06-24T23:27:16;96347.72;;;19.88
62932;BMP280;49037;41.898;25.004;2023-06-24T23:29:48;96360.19;;;19.93
62932;BMP280;49037;41.898;25.004;2023-06-24T23:32:16;96354.69;;;19.80
62932;BMP280;49037;41.898;25.004;2023-06-24T23:34:45;96366.13;;;19.78
62932;BMP280;49037;41.898;25.004;2023-06-24T23:37:39;96363.59;;;19.69
62932;BMP280;49037;41.898;25.004;2023-06-24T23:40:08;96362.66;;;19.64
62932;BMP280;49037;41.898;25.004;2023-06-24T23:42:36;96360.28;;;19.70
62932;BMP280;49037;41.898;25.004;2023-06-24T23:45:10;96347.38;;;19.57
62932;BMP280;49037;41.898;25.004;2023-06-24T23:47:36;96344.44;;;19.53
62932;BMP280;49037;41.898;25.004;2023-06-24T23:50:01;96358.09;;;19.55
62932;BMP280;49037;41.898;25.004;2023-06-24T23:52:27;96348.06;;;19.58
62932;BMP280;49037;41.898;25.004;2023-06-24T23:55:01;96349.84;;;19.53
